sensor_id;sensor_type;location;lat;lon;timestamp;P1;durP1;ratioP1;P2;durP2;ratioP2
60964;SDS011;46834;51.100;6.886;2022-12-20T00:00:59;2.10;;;1.38;;
60964;SDS011;46834;51.100;6.886;2022-12-20T00:03:25;2.47;;;1.33;;
60964;SDS011;46834;51.100;6.886;2022-12-20T00:05:51;2.65;;;1.40;;
60964;SDS011;46834;51.100;6.886;2022-12-20T00:08:16;2.72;;;1.20;;
60964;SDS011;46834;51.100;6.886;2022-12-20T00:10:43;2.13;;;1.33;;
60964;SDS011;46834;51.100;6.886;2022-12-20T00:13:09;1.50;;;1.30;;
60964;SDS011;46834;51.100;6.886;2022-12-20T00:15:36;2.13;;;1.55;;
60964;SDS011;46834;51.100;6.886;2022-12-20T00:18:02;1.33;;;1.17;;
60964;SDS011;46834;51.100;6.886;2022-12-20T00:20:28;3.00;;;1.58;;
60964;SDS011;46834;51.100;6.886;2022-12-20T00:22:54;3.97;;;1.35;;
60964;SDS011;46834;51.100;6.886;2022-12-20T00:25:20;2.67;;;1.80;;
60964;SDS011;46834;51.100;6.886;2022-12-20T00:27:47;6.57;;;1.40;;
60964;SDS011;46834;51.100;6.886;2022-12-20T00:30:14;2.78;;;1.30;;
60964;SDS011;46834;51.100;6.886;2022-12-20T00:32:40;1.95;;;1.30;;
60964;SDS011;46834;51.100;6.886;2022-12-20T00:35:07;1.95;;;1.30;;
60964;SDS011;46834;51.100;6.886;2022-12-20T00:37:33;4.07;;;1.40;;
60964;SDS011;46834;51.100;6.886;2022-12-20T00:39:59;2.92;;;1.50;;
60964;SDS011;46834;51.100;6.886;2022-12-20T00:42:25;1.80;;;1.20;;
60964;SDS011;46834;51.100;6.886;2022-12-20T00:44:50;1.80;;;1.40;;
60964;SDS011;46834;51.100;6.886;2022-12-20T00:47:16;2.83;;;1.40;;
60964;SDS011;46834;51.100;6.886;2022-12-20T00:49:42;2.58;;;1.40;;
60964;SDS011;46834;51.100;6.886;2022-12-20T00:52:07;1.67;;;1.45;;
60964;SDS011;46834;51.100;6.886;2022-12-20T00:54:33;1.83;;;1.30;;
60964;SDS011;46834;51.100;6.886;2022-12-20T00:56:59;1.80;;;1.38;;
60964;SDS011;46834;51.100;6.886;2022-12-20T00:59:24;1.85;;;1.30;;
60964;SDS011;46834;51.100;6.886;2022-12-20T01:01:50;1.67;;;1.20;;
60964;SDS011;46834;51.100;6.886;2022-12-20T01:04:16;2.05;;;1.15;;
60964;SDS011;46834;51.100;6.886;2022-12-20T01:06:42;1.77;;;1.25;;
60964;SDS011;46834;51.100;6.886;2022-12-20T01:09:07;2.63;;;1.15;;
60964;SDS011;46834;51.100;6.886;2022-12-20T01:11:35;5.22;;;1.30;;
60964;SDS011;46834;51.100;6.886;2022-12-20T01:14:04;2.20;;;1.20;;
60964;SDS011;46834;51.100;6.886;2022-12-20T01:16:41;1.83;;;1.30;;
60964;SDS011;46834;51.100;6.886;2022-12-20T01:19:10;2.28;;;1.35;;
60964;SDS011;46834;51.100;6.886;2022-12-20T01:21:38;1.77;;;1.33;;
60964;SDS011;46834;51.100;6.886;2022-12-20T01:24:08;3.10;;;1.73;;
60964;SDS011;46834;51.100;6.886;2022-12-20T01:26:39;10.05;;;1.60;;
60964;SDS011;46834;51.100;6.886;2022-12-20T01:29:05;3.25;;;1.92;;
60964;SDS011;46834;51.100;6.886;2022-12-20T01:31:31;3.25;;;1.80;;
60964;SDS011;46834;51.100;6.886;2022-12-20T01:33:57;3.00;;;1.77;;
60964;SDS011;46834;51.100;6.886;2022-12-20T01:36:25;2.50;;;1.70;;
60964;SDS011;46834;51.100;6.886;2022-12-20T01:38:55;2.72;;;1.90;;
60964;SDS011;46834;51.100;6.886;2022-12-20T01:41:23;2.83;;;1.70;;
60964;SDS011;46834;51.100;6.886;2022-12-20T01:43:56;2.70;;;1.67;;
60964;SDS011;46834;51.100;6.886;2022-12-20T01:46:50;2.13;;;1.70;;
60964;SDS011;46834;51.100;6.886;2022-12-20T01:49:25;3.10;;;1.60;;
60964;SDS011;46834;51.100;6.886;2022-12-20T01:52:08;2.83;;;1.60;;
60964;SDS011;46834;51.100;6.886;2022-12-20T01:54:42;2.60;;;1.80;;
60964;SDS011;46834;51.100;6.886;2022-12-20T01:57:19;5.38;;;2.30;;
60964;SDS011;46834;51.100;6.886;2022-12-20T01:59:55;1.90;;;1.70;;
60964;SDS011;46834;51.100;6.886;2022-12-20T02:02:22;3.58;;;2.05;;
60964;SDS011;46834;51.100;6.886;2022-12-20T02:04:49;2.70;;;2.13;;
60964;SDS011;46834;51.100;6.886;2022-12-20T02:07:16;4.20;;;2.22;;
60964;SDS011;46834;51.100;6.886;2022-12-20T02:09:49;3.33;;;1.58;;
60964;SDS011;46834;51.100;6.886;2022-12-20T02:12:24;2.50;;;1.85;;
60964;SDS011;46834;51.100;6.886;2022-12-20T02:20:27;3.95;;;1.85;;
60964;SDS011;46834;51.100;6.886;2022-12-20T02:32:25;5.22;;;2.42;;
60964;SDS011;46834;51.100;6.886;2022-12-20T02:35:19;3.35;;;1.70;;
60964;SDS011;46834;51.100;6.886;2022-12-20T02:37:50;2.63;;;1.83;;
60964;SDS011;46834;51.100;6.886;2022-12-20T02:40:25;2.92;;;1.80;;
60964;SDS011;46834;51.100;6.886;2022-12-20T02:43:06;2.10;;;1.67;;
60964;SDS011;46834;51.100;6.886;2022-12-20T02:45:54;3.88;;;2.25;;
60964;SDS011;46834;51.100;6.886;2022-12-20T02:48:23;3.80;;;2.13;;
60964;SDS011;46834;51.100;6.886;2022-12-20T02:50:53;2.53;;;1.92;;
60964;SDS011;46834;51.100;6.886;2022-12-20T02:53:23;2.40;;;1.80;;
60964;SDS011;46834;51.100;6.886;2022-12-20T02:55:53;2.65;;;1.80;;
60964;SDS011;46834;51.100;6.886;2022-12-20T02:58:38;2.95;;;2.00;;
60964;SDS011;46834;51.100;6.886;2022-12-20T03:01:30;3.45;;;2.25;;
60964;SDS011;46834;51.100;6.886;2022-12-20T03:04:02;4.85;;;2.05;;
60964;SDS011;46834;51.100;6.886;2022-12-20T03:06:29;3.47;;;2.38;;
60964;SDS011;46834;51.100;6.886;2022-12-20T03:08:55;3.65;;;2.60;;
60964;SDS011;46834;51.100;6.886;2022-12-20T03:11:21;2.67;;;2.25;;
60964;SDS011;46834;51.100;6.886;2022-12-20T03:13:47;3.08;;;2.30;;
60964;SDS011;46834;51.100;6.886;2022-12-20T03:16:13;3.25;;;2.05;;
60964;SDS011;46834;51.100;6.886;2022-12-20T03:18:39;3.97;;;2.53;;
60964;SDS011;46834;51.100;6.886;2022-12-20T03:21:04;4.93;;;2.00;;
60964;SDS011;46834;51.100;6.886;2022-12-20T03:23:30;3.03;;;2.08;;
60964;SDS011;46834;51.100;6.886;2022-12-20T03:25:57;3.22;;;2.30;;
60964;SDS011;46834;51.100;6.886;2022-12-20T03:28:22;3.33;;;2.10;;
60964;SDS011;46834;51.100;6.886;2022-12-20T03:30:48;3.78;;;2.20;;
60964;SDS011;46834;51.100;6.886;2022-12-20T03:33:14;7.80;;;2.42;;
60964;SDS011;46834;51.100;6.886;2022-12-20T03:35:40;7.32;;;2.30;;
60964;SDS011;46834;51.100;6.886;2022-12-20T03:38:05;3.05;;;1.90;;
60964;SDS011;46834;51.100;6.886;2022-12-20T03:40:31;4.38;;;2.20;;
60964;SDS011;46834;51.100;6.886;2022-12-20T03:42:57;3.80;;;2.05;;
60964;SDS011;46834;51.100;6.886;2022-12-20T03:45:23;4.28;;;2.10;;
60964;SDS011;46834;51.100;6.886;2022-12-20T03:47:49;3.30;;;2.17;;
60964;SDS011;46834;51.100;6.886;2022-12-20T03:50:14;3.55;;;2.30;;
60964;SDS011;46834;51.100;6.886;2022-12-20T03:52:40;2.30;;;1.83;;
60964;SDS011;46834;51.100;6.886;2022-12-20T03:55:06;2.80;;;2.15;;
60964;SDS011;46834;51.100;6.886;2022-12-20T03:57:33;3.08;;;2.35;;
60964;SDS011;46834;51.100;6.886;2022-12-20T04:00:00;2.85;;;2.20;;
60964;SDS011;46834;51.100;6.886;2022-12-20T04:02:26;2.40;;;2.00;;
60964;SDS011;46834;51.100;6.886;2022-12-20T04:04:51;2.83;;;2.05;;
60964;SDS011;46834;51.100;6.886;2022-12-20T04:07:17;2.90;;;1.95;;
60964;SDS011;46834;51.100;6.886;2022-12-20T04:09:43;4.47;;;2.28;;
60964;SDS011;46834;51.100;6.886;2022-12-20T04:12:08;5.30;;;2.25;;
60964;SDS011;46834;51.100;6.886;2022-12-20T04:14:34;3.90;;;2.00;;
60964;SDS011;46834;51.100;6.886;2022-12-20T04:17:01;3.45;;;2.10;;
60964;SDS011;46834;51.100;6.886;2022-12-20T04:19:27;2.50;;;1.80;;
60964;SDS011;46834;51.100;6.886;2022-12-20T04:21:53;3.42;;;2.35;;
60964;SDS011;46834;51.100;6.886;2022-12-20T04:24:20;7.30;;;2.50;;
60964;SDS011;46834;51.100;6.886;2022-12-20T04:26:46;3.05;;;2.33;;
60964;SDS011;46834;51.100;6.886;2022-12-20T04:29:13;3.88;;;2.17;;
60964;SDS011;46834;51.100;6.886;2022-12-20T04:31:39;4.90;;;2.63;;
60964;SDS011;46834;51.100;6.886;2022-12-20T04:34:04;6.82;;;2.90;;
60964;SDS011;46834;51.100;6.886;2022-12-20T04:36:30;5.05;;;3.08;;
60964;SDS011;46834;51.100;6.886;2022-12-20T04:38:56;3.70;;;2.60;;
60964;SDS011;46834;51.100;6.886;2022-12-20T04:41:22;3.38;;;2.63;;
60964;SDS011;46834;51.100;6.886;2022-12-20T04:43:51;3.38;;;3.03;;
60964;SDS011;46834;51.100;6.886;2022-12-20T04:46:20;5.07;;;2.97;;
60964;SDS011;46834;51.100;6.886;2022-12-20T04:48:47;4.00;;;2.85;;
60964;SDS011;46834;51.100;6.886;2022-12-20T04:51:13;6.38;;;3.60;;
60964;SDS011;46834;51.100;6.886;2022-12-20T04:53:39;5.03;;;3.25;;
60964;SDS011;46834;51.100;6.886;2022-12-20T04:56:17;4.88;;;3.30;;
60964;SDS011;46834;51.100;6.886;2022-12-20T04:58:46;3.58;;;2.75;;
60964;SDS011;46834;51.100;6.886;2022-12-20T05:01:14;4.93;;;3.03;;
60964;SDS011;46834;51.100;6.886;2022-12-20T05:03:40;8.18;;;3.22;;
60964;SDS011;46834;51.100;6.886;2022-12-20T05:06:07;6.38;;;3.38;;
60964;SDS011;46834;51.100;6.886;2022-12-20T05:08:34;5.30;;;3.30;;
60964;SDS011;46834;51.100;6.886;2022-12-20T05:11:00;3.80;;;2.60;;
60964;SDS011;46834;51.100;6.886;2022-12-20T05:13:26;4.88;;;2.70;;
60964;SDS011;46834;51.100;6.886;2022-12-20T05:15:53;6.30;;;2.55;;
60964;SDS011;46834;51.100;6.886;2022-12-20T05:18:20;5.45;;;2.78;;
60964;SDS011;46834;51.100;6.886;2022-12-20T05:20:46;3.22;;;2.30;;
60964;SDS011;46834;51.100;6.886;2022-12-20T05:23:12;4.38;;;2.13;;
60964;SDS011;46834;51.100;6.886;2022-12-20T05:25:57;3.40;;;2.53;;
60964;SDS011;46834;51.100;6.886;2022-12-20T05:28:41;5.10;;;2.80;;
60964;SDS011;46834;51.100;6.886;2022-12-20T05:31:07;3.03;;;2.30;;
60964;SDS011;46834;51.100;6.886;2022-12-20T05:33:33;3.20;;;2.10;;
60964;SDS011;46834;51.100;6.886;2022-12-20T05:35:58;4.68;;;2.30;;
60964;SDS011;46834;51.100;6.886;2022-12-20T05:38:24;4.22;;;2.20;;
60964;SDS011;46834;51.100;6.886;2022-12-20T05:40:50;4.80;;;2.53;;
60964;SDS011;46834;51.100;6.886;2022-12-20T05:43:16;4.03;;;2.40;;
60964;SDS011;46834;51.100;6.886;2022-12-20T05:45:46;5.25;;;2.20;;
60964;SDS011;46834;51.100;6.886;2022-12-20T05:48:17;2.83;;;2.33;;
60964;SDS011;46834;51.100;6.886;2022-12-20T05:50:44;4.43;;;2.53;;
60964;SDS011;46834;51.100;6.886;2022-12-20T05:53:11;3.20;;;2.33;;
60964;SDS011;46834;51.100;6.886;2022-12-20T05:55:58;4.63;;;2.40;;
60964;SDS011;46834;51.100;6.886;2022-12-20T05:58:25;3.90;;;2.50;;
60964;SDS011;46834;51.100;6.886;2022-12-20T06:00:52;4.05;;;2.33;;
60964;SDS011;46834;51.100;6.886;2022-12-20T06:03:18;2.60;;;2.03;;
60964;SDS011;46834;51.100;6.886;2022-12-20T06:05:43;3.45;;;2.72;;
60964;SDS011;46834;51.100;6.886;2022-12-20T06:08:10;5.40;;;2.97;;
60964;SDS011;46834;51.100;6.886;2022-12-20T06:10:38;3.83;;;2.30;;
60964;SDS011;46834;51.100;6.886;2022-12-20T06:13:06;4.70;;;2.40;;
60964;SDS011;46834;51.100;6.886;2022-12-20T06:15:33;5.72;;;2.83;;
60964;SDS011;46834;51.100;6.886;2022-12-20T06:17:59;3.25;;;2.10;;
60964;SDS011;46834;51.100;6.886;2022-12-20T06:20:25;5.10;;;3.10;;
60964;SDS011;46834;51.100;6.886;2022-12-20T06:22:52;2.85;;;2.45;;
60964;SDS011;46834;51.100;6.886;2022-12-20T06:25:18;3.38;;;2.47;;
60964;SDS011;46834;51.100;6.886;2022-12-20T06:27:44;3.90;;;2.60;;
60964;SDS011;46834;51.100;6.886;2022-12-20T06:30:10;4.30;;;2.63;;
60964;SDS011;46834;51.100;6.886;2022-12-20T06:32:36;3.72;;;2.58;;
60964;SDS011;46834;51.100;6.886;2022-12-20T06:35:03;4.90;;;2.80;;
60964;SDS011;46834;51.100;6.886;2022-12-20T06:37:30;3.92;;;2.33;;
60964;SDS011;46834;51.100;6.886;2022-12-20T06:39:56;3.72;;;2.38;;
60964;SDS011;46834;51.100;6.886;2022-12-20T06:42:22;3.33;;;2.72;;
60964;SDS011;46834;51.100;6.886;2022-12-20T06:44:48;3.22;;;2.20;;
60964;SDS011;46834;51.100;6.886;2022-12-20T06:47:14;3.35;;;2.28;;
60964;SDS011;46834;51.100;6.886;2022-12-20T06:49:40;4.10;;;2.75;;
60964;SDS011;46834;51.100;6.886;2022-12-20T06:52:05;4.03;;;2.72;;
60964;SDS011;46834;51.100;6.886;2022-12-20T06:54:31;3.55;;;2.10;;
60964;SDS011;46834;51.100;6.886;2022-12-20T06:56:57;3.97;;;2.38;;
60964;SDS011;46834;51.100;6.886;2022-12-20T06:59:22;3.97;;;2.40;;
60964;SDS011;46834;51.100;6.886;2022-12-20T07:01:48;3.53;;;2.50;;
60964;SDS011;46834;51.100;6.886;2022-12-20T07:04:13;4.88;;;2.25;;
60964;SDS011;46834;51.100;6.886;2022-12-20T07:06:39;3.17;;;2.30;;
60964;SDS011;46834;51.100;6.886;2022-12-20T07:09:05;4.68;;;2.20;;
60964;SDS011;46834;51.100;6.886;2022-12-20T07:11:31;3.55;;;2.10;;
60964;SDS011;46834;51.100;6.886;2022-12-20T07:13:56;5.25;;;2.22;;
60964;SDS011;46834;51.100;6.886;2022-12-20T07:16:23;4.75;;;2.60;;
60964;SDS011;46834;51.100;6.886;2022-12-20T07:18:49;3.58;;;2.05;;
60964;SDS011;46834;51.100;6.886;2022-12-20T07:21:18;2.80;;;1.77;;
60964;SDS011;46834;51.100;6.886;2022-12-20T07:23:45;5.32;;;2.42;;
60964;SDS011;46834;51.100;6.886;2022-12-20T07:26:11;3.80;;;2.35;;
60964;SDS011;46834;51.100;6.886;2022-12-20T07:28:38;3.10;;;2.22;;
60964;SDS011;46834;51.100;6.886;2022-12-20T07:31:05;3.15;;;2.20;;
60964;SDS011;46834;51.100;6.886;2022-12-20T07:33:31;3.03;;;1.90;;
60964;SDS011;46834;51.100;6.886;2022-12-20T07:36:04;3.65;;;2.60;;
60964;SDS011;46834;51.100;6.886;2022-12-20T07:38:35;4.57;;;2.38;;
60964;SDS011;46834;51.100;6.886;2022-12-20T07:41:08;5.85;;;2.75;;
60964;SDS011;46834;51.100;6.886;2022-12-20T07:43:39;4.00;;;2.50;;
60964;SDS011;46834;51.100;6.886;2022-12-20T07:46:06;2.50;;;2.30;;
60964;SDS011;46834;51.100;6.886;2022-12-20T07:48:33;3.97;;;2.30;;
60964;SDS011;46834;51.100;6.886;2022-12-20T07:51:06;3.53;;;2.13;;
60964;SDS011;46834;51.100;6.886;2022-12-20T07:53:41;3.28;;;2.22;;
60964;SDS011;46834;51.100;6.886;2022-12-20T07:56:18;3.90;;;2.38;;
60964;SDS011;46834;51.100;6.886;2022-12-20T07:58:46;3.47;;;2.33;;
60964;SDS011;46834;51.100;6.886;2022-12-20T08:01:18;3.50;;;2.30;;
60964;SDS011;46834;51.100;6.886;2022-12-20T08:03:46;3.60;;;2.58;;
60964;SDS011;46834;51.100;6.886;2022-12-20T08:06:17;3.28;;;2.30;;
60964;SDS011;46834;51.100;6.886;2022-12-20T08:08:45;5.55;;;2.80;;
60964;SDS011;46834;51.100;6.886;2022-12-20T08:11:16;3.63;;;2.58;;
60964;SDS011;46834;51.100;6.886;2022-12-20T08:13:45;4.85;;;2.78;;
60964;SDS011;46834;51.100;6.886;2022-12-20T08:16:13;3.58;;;2.45;;
60964;SDS011;46834;51.100;6.886;2022-12-20T08:18:39;6.22;;;3.03;;
60964;SDS011;46834;51.100;6.886;2022-12-20T08:21:05;4.13;;;2.72;;
60964;SDS011;46834;51.100;6.886;2022-12-20T08:23:32;5.20;;;2.53;;
60964;SDS011;46834;51.100;6.886;2022-12-20T08:25:59;4.85;;;2.70;;
60964;SDS011;46834;51.100;6.886;2022-12-20T08:28:26;4.47;;;2.47;;
60964;SDS011;46834;51.100;6.886;2022-12-20T08:30:52;5.40;;;2.60;;
60964;SDS011;46834;51.100;6.886;2022-12-20T08:33:24;3.72;;;2.20;;
60964;SDS011;46834;51.100;6.886;2022-12-20T08:35:55;2.97;;;2.30;;
60964;SDS011;46834;51.100;6.886;2022-12-20T08:38:27;5.88;;;2.22;;
60964;SDS011;46834;51.100;6.886;2022-12-20T08:40:54;5.68;;;2.80;;
60964;SDS011;46834;51.100;6.886;2022-12-20T08:43:25;2.58;;;2.08;;
60964;SDS011;46834;51.100;6.886;2022-12-20T08:45:54;4.80;;;2.33;;
60964;SDS011;46834;51.100;6.886;2022-12-20T08:48:20;3.28;;;2.10;;
60964;SDS011;46834;51.100;6.886;2022-12-20T08:50:47;2.65;;;2.10;;
60964;SDS011;46834;51.100;6.886;2022-12-20T08:53:21;3.80;;;2.30;;
60964;SDS011;46834;51.100;6.886;2022-12-20T08:55:47;5.07;;;2.20;;
60964;SDS011;46834;51.100;6.886;2022-12-20T08:58:12;3.58;;;2.15;;
60964;SDS011;46834;51.100;6.886;2022-12-20T09:00:39;5.93;;;2.33;;
60964;SDS011;46834;51.100;6.886;2022-12-20T09:03:05;3.65;;;1.92;;
60964;SDS011;46834;51.100;6.886;2022-12-20T09:05:32;2.80;;;2.17;;
60964;SDS011;46834;51.100;6.886;2022-12-20T09:07:58;3.33;;;2.00;;
60964;SDS011;46834;51.100;6.886;2022-12-20T09:10:23;4.78;;;2.22;;
60964;SDS011;46834;51.100;6.886;2022-12-20T09:12:49;4.18;;;2.03;;
60964;SDS011;46834;51.100;6.886;2022-12-20T09:15:15;3.35;;;2.08;;
60964;SDS011;46834;51.100;6.886;2022-12-20T09:17:41;4.35;;;2.25;;
60964;SDS011;46834;51.100;6.886;2022-12-20T09:20:06;3.15;;;2.17;;
60964;SDS011;46834;51.100;6.886;2022-12-20T09:22:33;3.92;;;2.65;;
60964;SDS011;46834;51.100;6.886;2022-12-20T09:24:58;4.97;;;2.35;;
60964;SDS011;46834;51.100;6.886;2022-12-20T09:27:24;4.00;;;2.30;;
60964;SDS011;46834;51.100;6.886;2022-12-20T09:29:50;2.80;;;2.15;;
60964;SDS011;46834;51.100;6.886;2022-12-20T09:32:15;2.97;;;2.17;;
60964;SDS011;46834;51.100;6.886;2022-12-20T09:34:41;3.72;;;2.17;;
60964;SDS011;46834;51.100;6.886;2022-12-20T09:37:07;2.80;;;2.05;;
60964;SDS011;46834;51.100;6.886;2022-12-20T09:39:32;3.33;;;2.05;;
60964;SDS011;46834;51.100;6.886;2022-12-20T09:41:58;2.60;;;2.10;;
60964;SDS011;46834;51.100;6.886;2022-12-20T09:44:25;4.47;;;2.08;;
60964;SDS011;46834;51.100;6.886;2022-12-20T09:47:02;3.88;;;1.90;;
60964;SDS011;46834;51.100;6.886;2022-12-20T09:49:40;4.93;;;2.25;;
60964;SDS011;46834;51.100;6.886;2022-12-20T09:57:57;2.80;;;1.92;;
60964;SDS011;46834;51.100;6.886;2022-12-20T10:00:48;3.28;;;2.20;;
60964;SDS011;46834;51.100;6.886;2022-12-20T10:03:18;3.80;;;2.15;;
60964;SDS011;46834;51.100;6.886;2022-12-20T10:09:02;4.45;;;2.10;;
60964;SDS011;46834;51.100;6.886;2022-12-20T10:15:07;3.00;;;1.90;;
60964;SDS011;46834;51.100;6.886;2022-12-20T10:20:56;4.05;;;2.50;;
60964;SDS011;46834;51.100;6.886;2022-12-20T10:23:36;3.95;;;2.58;;
60964;SDS011;46834;51.100;6.886;2022-12-20T10:26:26;3.05;;;1.92;;
60964;SDS011;46834;51.100;6.886;2022-12-20T10:28:53;2.90;;;1.90;;
60964;SDS011;46834;51.100;6.886;2022-12-20T10:31:19;2.78;;;2.30;;
60964;SDS011;46834;51.100;6.886;2022-12-20T10:33:46;4.22;;;2.10;;
60964;SDS011;46834;51.100;6.886;2022-12-20T10:36:25;3.15;;;2.00;;
60964;SDS011;46834;51.100;6.886;2022-12-20T10:38:57;3.58;;;2.13;;
60964;SDS011;46834;51.100;6.886;2022-12-20T10:41:31;3.53;;;2.00;;
60964;SDS011;46834;51.100;6.886;2022-12-20T10:44:49;3.97;;;2.28;;
60964;SDS011;46834;51.100;6.886;2022-12-20T10:46:57;2.78;;;1.80;;
60964;SDS011;46834;51.100;6.886;2022-12-20T10:49:38;6.78;;;2.40;;
60964;SDS011;46834;51.100;6.886;2022-12-20T10:54:39;2.40;;;1.85;;
60964;SDS011;46834;51.100;6.886;2022-12-20T10:59:41;5.43;;;2.00;;
60964;SDS011;46834;51.100;6.886;2022-12-20T11:02:25;4.45;;;2.15;;
60964;SDS011;46834;51.100;6.886;2022-12-20T11:05:03;3.85;;;1.92;;
60964;SDS011;46834;51.100;6.886;2022-12-20T11:07:36;4.88;;;2.15;;
60964;SDS011;46834;51.100;6.886;2022-12-20T11:11:08;2.70;;;1.88;;
60964;SDS011;46834;51.100;6.886;2022-12-20T11:13:44;5.50;;;1.90;;
60964;SDS011;46834;51.100;6.886;2022-12-20T11:19:22;4.05;;;1.90;;
60964;SDS011;46834;51.100;6.886;2022-12-20T11:21:59;2.35;;;1.67;;
60964;SDS011;46834;51.100;6.886;2022-12-20T11:25:01;2.10;;;1.70;;
60964;SDS011;46834;51.100;6.886;2022-12-20T11:30:20;3.03;;;1.73;;
60964;SDS011;46834;51.100;6.886;2022-12-20T11:36:16;4.13;;;2.00;;
60964;SDS011;46834;51.100;6.886;2022-12-20T11:41:58;4.95;;;1.88;;
60964;SDS011;46834;51.100;6.886;2022-12-20T11:56:11;3.35;;;1.92;;
60964;SDS011;46834;51.100;6.886;2022-12-20T11:59:03;2.85;;;1.75;;
60964;SDS011;46834;51.100;6.886;2022-12-20T12:02:17;3.47;;;1.95;;
60964;SDS011;46834;51.100;6.886;2022-12-20T12:04:55;4.18;;;1.90;;
60964;SDS011;46834;51.100;6.886;2022-12-20T12:07:29;2.63;;;1.98;;
60964;SDS011;46834;51.100;6.886;2022-12-20T12:12:51;2.65;;;2.00;;
60964;SDS011;46834;51.100;6.886;2022-12-20T12:15:28;3.83;;;1.83;;
60964;SDS011;46834;51.100;6.886;2022-12-20T12:18:07;3.95;;;2.30;;
60964;SDS011;46834;51.100;6.886;2022-12-20T12:26:01;2.72;;;1.98;;
60964;SDS011;46834;51.100;6.886;2022-12-20T12:29:13;3.40;;;1.80;;
60964;SDS011;46834;51.100;6.886;2022-12-20T12:46:45;2.92;;;1.77;;
60964;SDS011;46834;51.100;6.886;2022-12-20T12:49:20;3.08;;;1.80;;
60964;SDS011;46834;51.100;6.886;2022-12-20T12:51:58;2.53;;;1.60;;
60964;SDS011;46834;51.100;6.886;2022-12-20T12:54:33;2.25;;;1.60;;
60964;SDS011;46834;51.100;6.886;2022-12-20T12:57:11;3.00;;;1.92;;
60964;SDS011;46834;51.100;6.886;2022-12-20T12:59:41;2.10;;;1.63;;
60964;SDS011;46834;51.100;6.886;2022-12-20T13:04:59;4.20;;;1.55;;
60964;SDS011;46834;51.100;6.886;2022-12-20T13:10:02;3.47;;;2.25;;
60964;SDS011;46834;51.100;6.886;2022-12-20T13:20:23;5.57;;;3.15;;
60964;SDS011;46834;51.100;6.886;2022-12-20T13:25:33;7.55;;;3.25;;
60964;SDS011;46834;51.100;6.886;2022-12-20T13:31:29;4.97;;;2.70;;
60964;SDS011;46834;51.100;6.886;2022-12-20T13:33:53;4.15;;;2.47;;
60964;SDS011;46834;51.100;6.886;2022-12-20T13:36:29;4.97;;;2.38;;
60964;SDS011;46834;51.100;6.886;2022-12-20T13:38:58;4.78;;;2.45;;
60964;SDS011;46834;51.100;6.886;2022-12-20T13:41:53;6.13;;;2.13;;
60964;SDS011;46834;51.100;6.886;2022-12-20T13:44:46;6.28;;;2.50;;
60964;SDS011;46834;51.100;6.886;2022-12-20T13:47:27;5.93;;;2.78;;
60964;SDS011;46834;51.100;6.886;2022-12-20T13:50:25;4.72;;;2.92;;
60964;SDS011;46834;51.100;6.886;2022-12-20T13:52:57;3.85;;;2.55;;
60964;SDS011;46834;51.100;6.886;2022-12-20T13:55:30;3.20;;;2.33;;
60964;SDS011;46834;51.100;6.886;2022-12-20T13:58:04;6.75;;;2.60;;
60964;SDS011;46834;51.100;6.886;2022-12-20T14:00:37;4.40;;;2.63;;
60964;SDS011;46834;51.100;6.886;2022-12-20T14:03:03;4.53;;;2.38;;
60964;SDS011;46834;51.100;6.886;2022-12-20T14:05:37;5.32;;;2.70;;
60964;SDS011;46834;51.100;6.886;2022-12-20T14:08:08;5.03;;;2.75;;
60964;SDS011;46834;51.100;6.886;2022-12-20T14:10:44;5.00;;;2.63;;
60964;SDS011;46834;51.100;6.886;2022-12-20T14:13:18;4.25;;;2.72;;
60964;SDS011;46834;51.100;6.886;2022-12-20T14:15:52;8.15;;;3.30;;
60964;SDS011;46834;51.100;6.886;2022-12-20T14:18:23;5.93;;;3.67;;
60964;SDS011;46834;51.100;6.886;2022-12-20T14:20:52;6.63;;;3.75;;
60964;SDS011;46834;51.100;6.886;2022-12-20T14:23:39;7.55;;;3.95;;
60964;SDS011;46834;51.100;6.886;2022-12-20T14:26:10;8.23;;;4.47;;
60964;SDS011;46834;51.100;6.886;2022-12-20T14:28:42;7.70;;;3.67;;
60964;SDS011;46834;51.100;6.886;2022-12-20T14:36:35;9.23;;;4.20;;
60964;SDS011;46834;51.100;6.886;2022-12-20T14:39:25;6.22;;;4.07;;
60964;SDS011;46834;51.100;6.886;2022-12-20T14:42:01;8.82;;;3.92;;
60964;SDS011;46834;51.100;6.886;2022-12-20T14:44:36;4.80;;;3.28;;
60964;SDS011;46834;51.100;6.886;2022-12-20T14:49:53;5.00;;;3.58;;
60964;SDS011;46834;51.100;6.886;2022-12-20T14:52:38;4.85;;;3.17;;
60964;SDS011;46834;51.100;6.886;2022-12-20T14:55:07;6.57;;;3.05;;
60964;SDS011;46834;51.100;6.886;2022-12-20T14:57:46;5.85;;;3.20;;
60964;SDS011;46834;51.100;6.886;2022-12-20T15:13:38;3.78;;;2.60;;
60964;SDS011;46834;51.100;6.886;2022-12-20T15:16:15;5.78;;;2.85;;
60964;SDS011;46834;51.100;6.886;2022-12-20T15:18:47;7.53;;;3.42;;
60964;SDS011;46834;51.100;6.886;2022-12-20T15:21:16;5.70;;;2.88;;
60964;SDS011;46834;51.100;6.886;2022-12-20T15:24:02;8.18;;;4.07;;
60964;SDS011;46834;51.100;6.886;2022-12-20T15:26:33;9.05;;;4.15;;
60964;SDS011;46834;51.100;6.886;2022-12-20T15:29:00;6.38;;;3.72;;
60964;SDS011;46834;51.100;6.886;2022-12-20T15:31:26;7.05;;;3.38;;
60964;SDS011;46834;51.100;6.886;2022-12-20T15:33:54;5.47;;;3.05;;
60964;SDS011;46834;51.100;6.886;2022-12-20T15:36:24;5.28;;;2.97;;
60964;SDS011;46834;51.100;6.886;2022-12-20T15:38:53;6.07;;;2.92;;
60964;SDS011;46834;51.100;6.886;2022-12-20T15:41:21;4.35;;;2.75;;
60964;SDS011;46834;51.100;6.886;2022-12-20T15:43:54;5.28;;;2.85;;
60964;SDS011;46834;51.100;6.886;2022-12-20T15:46:23;4.03;;;2.53;;
60964;SDS011;46834;51.100;6.886;2022-12-20T15:48:51;5.80;;;3.00;;
60964;SDS011;46834;51.100;6.886;2022-12-20T15:51:23;4.40;;;2.65;;
60964;SDS011;46834;51.100;6.886;2022-12-20T15:53:58;3.92;;;2.85;;
60964;SDS011;46834;51.100;6.886;2022-12-20T15:56:27;4.05;;;2.70;;
60964;SDS011;46834;51.100;6.886;2022-12-20T15:58:54;4.43;;;2.45;;
60964;SDS011;46834;51.100;6.886;2022-12-20T16:01:24;7.97;;;3.20;;
60964;SDS011;46834;51.100;6.886;2022-12-20T16:03:55;8.40;;;3.13;;
60964;SDS011;46834;51.100;6.886;2022-12-20T16:06:21;4.57;;;2.83;;
60964;SDS011;46834;51.100;6.886;2022-12-20T16:08:47;4.15;;;2.80;;
60964;SDS011;46834;51.100;6.886;2022-12-20T16:11:20;5.43;;;2.85;;
60964;SDS011;46834;51.100;6.886;2022-12-20T16:13:51;4.43;;;3.15;;
60964;SDS011;46834;51.100;6.886;2022-12-20T16:16:28;10.90;;;3.40;;
60964;SDS011;46834;51.100;6.886;2022-12-20T16:18:57;10.43;;;3.38;;
60964;SDS011;46834;51.100;6.886;2022-12-20T16:21:26;7.32;;;3.13;;
60964;SDS011;46834;51.100;6.886;2022-12-20T16:23:56;5.97;;;3.10;;
60964;SDS011;46834;51.100;6.886;2022-12-20T16:26:23;5.38;;;2.80;;
60964;SDS011;46834;51.100;6.886;2022-12-20T16:28:51;4.90;;;2.90;;
60964;SDS011;46834;51.100;6.886;2022-12-20T16:33:50;4.63;;;2.80;;
60964;SDS011;46834;51.100;6.886;2022-12-20T16:36:17;4.32;;;2.88;;
60964;SDS011;46834;51.100;6.886;2022-12-20T16:38:43;4.22;;;2.83;;
60964;SDS011;46834;51.100;6.886;2022-12-20T16:41:15;4.53;;;2.75;;
60964;SDS011;46834;51.100;6.886;2022-12-20T16:43:47;7.45;;;2.78;;
60964;SDS011;46834;51.100;6.886;2022-12-20T16:46:15;4.68;;;2.47;;
60964;SDS011;46834;51.100;6.886;2022-12-20T16:48:44;4.15;;;2.50;;
60964;SDS011;46834;51.100;6.886;2022-12-20T16:53:52;4.45;;;2.60;;
60964;SDS011;46834;51.100;6.886;2022-12-20T16:56:27;4.93;;;2.65;;
60964;SDS011;46834;51.100;6.886;2022-12-20T16:58:54;5.03;;;2.85;;
60964;SDS011;46834;51.100;6.886;2022-12-20T17:01:22;4.35;;;2.50;;
60964;SDS011;46834;51.100;6.886;2022-12-20T17:03:54;5.65;;;2.67;;
60964;SDS011;46834;51.100;6.886;2022-12-20T17:06:19;6.50;;;2.65;;
60964;SDS011;46834;51.100;6.886;2022-12-20T17:08:46;3.67;;;2.53;;
60964;SDS011;46834;51.100;6.886;2022-12-20T17:13:54;7.35;;;2.72;;
60964;SDS011;46834;51.100;6.886;2022-12-20T17:16:20;5.00;;;2.97;;
60964;SDS011;46834;51.100;6.886;2022-12-20T17:18:48;6.43;;;2.75;;